createdAt,value
2024-03-11T00:00:27.796Z,945.41
2024-03-11T00:01:27.727Z,945.39
2024-03-11T00:02:27.720Z,945.42
2024-03-11T00:03:27.628Z,945.49
2024-03-11T00:04:27.577Z,945.45
2024-03-11T00:05:27.584Z,945.49
2024-03-11T00:06:27.510Z,945.49
2024-03-11T00:07:27.480Z,945.51
2024-03-11T00:08:27.459Z,945.51
2024-03-11T00:09:27.417Z,945.54
2024-03-11T00:10:27.385Z,945.51
2024-03-11T00:11:27.360Z,945.57
2024-03-11T00:12:27.321Z,945.56
2024-03-11T00:13:27.290Z,945.56
2024-03-11T00:14:27.347Z,945.62
2024-03-11T00:15:27.234Z,945.64
2024-03-11T00:16:27.199Z,945.65
2024-03-11T00:17:27.192Z,945.65
2024-03-11T00:18:27.195Z,945.67
2024-03-11T00:19:27.115Z,945.70
2024-03-11T00:20:27.106Z,945.69
2024-03-11T00:21:27.035Z,945.66
2024-03-11T00:22:27.002Z,945.66
2024-03-11T00:23:27.070Z,945.66
2024-03-11T00:24:26.952Z,945.68
2024-03-11T00:25:26.917Z,945.68
2024-03-11T00:26:26.904Z,945.66
2024-03-11T00:27:26.873Z,945.69
2024-03-11T00:28:26.813Z,945.71
2024-03-11T00:29:26.808Z,945.74
2024-03-11T00:30:26.754Z,945.72
2024-03-11T00:31:26.719Z,945.74
2024-03-11T00:32:26.837Z,945.71
2024-03-11T00:33:26.703Z,945.71
2024-03-11T00:34:26.676Z,945.72
2024-03-11T00:35:26.603Z,945.68
2024-03-11T00:36:26.559Z,945.67
2024-03-11T00:37:26.527Z,945.70
2024-03-11T00:38:26.564Z,945.73
2024-03-11T00:39:26.466Z,945.77
2024-03-11T00:40:26.449Z,945.78
2024-03-11T00:41:26.426Z,945.78
2024-03-11T00:42:26.364Z,945.77
2024-03-11T00:43:26.341Z,945.82
2024-03-11T00:44:26.336Z,945.87
2024-03-11T00:45:26.274Z,945.90
2024-03-11T00:46:26.242Z,945.92
2024-03-11T00:47:26.252Z,945.91
2024-03-11T00:48:26.224Z,945.90
2024-03-11T00:49:26.146Z,945.97
2024-03-11T00:50:26.247Z,945.98
2024-03-11T00:51:26.089Z,945.99
2024-03-11T00:52:26.058Z,945.96
2024-03-11T00:53:26.057Z,946.00
2024-03-11T00:54:26.004Z,946.01
2024-03-11T00:55:25.962Z,946.00
2024-03-11T00:56:25.966Z,946.04
2024-03-11T00:57:25.897Z,946.04
2024-03-11T00:58:25.890Z,946.01
2024-03-11T00:59:25.898Z,946.03
2024-03-11T01:00:25.794Z,946.05
2024-03-11T01:01:25.768Z,946.04
2024-03-11T01:02:25.764Z,946.03
2024-03-11T01:03:25.699Z,946.07
2024-03-11T01:04:25.667Z,946.05
2024-03-11T01:05:25.683Z,946.06
2024-03-11T01:06:25.663Z,946.09
2024-03-11T01:07:31.204Z,946.10
2024-03-11T01:08:25.573Z,946.06
2024-03-11T01:09:25.522Z,946.06
2024-03-11T01:10:25.486Z,946.09
2024-03-11T01:11:25.497Z,946.15
2024-03-11T01:12:25.416Z,946.09
2024-03-11T01:13:25.385Z,946.12
2024-03-11T01:14:25.396Z,946.12
2024-03-11T01:15:25.339Z,946.12
2024-03-11T01:16:25.283Z,946.13
2024-03-11T01:17:25.280Z,946.14
2024-03-11T01:18:25.300Z,946.13
2024-03-11T01:19:25.189Z,946.12
2024-03-11T01:20:25.179Z,946.12
2024-03-11T01:21:25.125Z,946.12
2024-03-11T01:22:25.153Z,946.15
2024-03-11T01:23:25.647Z,946.14
2024-03-11T01:24:25.033Z,946.19
2024-03-11T01:25:24.998Z,946.18
2024-03-11T01:26:24.981Z,946.21
2024-03-11T01:27:24.937Z,946.25
2024-03-11T01:28:24.904Z,946.20
2024-03-11T01:29:24.914Z,946.26
2024-03-11T01:30:24.847Z,946.23
2024-03-11T01:31:24.808Z,946.23
2024-03-11T01:32:24.819Z,946.26
2024-03-11T01:33:24.773Z,946.24
2024-03-11T01:34:24.708Z,946.22
2024-03-11T01:35:24.733Z,946.22
2024-03-11T01:36:24.654Z,946.22
2024-03-11T01:37:24.634Z,946.21
2024-03-11T01:38:24.653Z,946.25
2024-03-11T01:39:24.589Z,946.26
2024-03-11T01:40:24.521Z,946.23
2024-03-11T01:41:24.560Z,946.26
2024-03-11T01:42:24.472Z,946.29
2024-03-11T01:43:24.426Z,946.27
2024-03-11T01:44:24.417Z,946.28
2024-03-11T01:45:24.361Z,946.24
2024-03-11T01:46:24.334Z,946.29
2024-03-11T01:47:24.452Z,946.29
2024-03-11T01:48:24.289Z,946.30
2024-03-11T01:49:24.236Z,946.31
2024-03-11T01:50:24.282Z,946.32
2024-03-11T01:51:24.189Z,946.39
2024-03-11T01:52:24.151Z,946.40
2024-03-11T01:53:24.135Z,946.33
2024-03-11T01:54:24.165Z,946.35
2024-03-11T01:55:24.060Z,946.36
2024-03-11T01:56:24.057Z,946.31
2024-03-11T01:57:23.982Z,946.33
2024-03-11T01:58:23.953Z,946.36
2024-03-11T01:59:24.028Z,946.37
2024-03-11T02:00:24.018Z,946.34
2024-03-11T02:01:23.877Z,946.32
2024-03-11T02:02:23.854Z,946.36
2024-03-11T02:03:23.791Z,946.36
2024-03-11T02:04:23.761Z,946.36
2024-03-11T02:05:23.791Z,946.32
2024-03-11T02:06:23.691Z,946.29
2024-03-11T02:07:23.695Z,946.32
2024-03-11T02:08:23.701Z,946.34
2024-03-11T02:09:23.599Z,946.34
2024-03-11T02:10:23.702Z,946.32
2024-03-11T02:11:23.614Z,946.35
2024-03-11T02:12:23.548Z,946.32
2024-03-11T02:13:23.472Z,946.29
2024-03-11T02:14:23.456Z,946.31
2024-03-11T02:15:23.412Z,946.29
2024-03-11T02:16:23.376Z,946.31
2024-03-11T02:17:23.431Z,946.32
2024-03-11T02:18:23.392Z,946.33
2024-03-11T02:19:23.280Z,946.33
2024-03-11T02:20:23.407Z,946.33
2024-03-11T02:21:23.304Z,946.37
2024-03-11T02:22:23.192Z,946.36
2024-03-11T02:23:23.176Z,946.36
2024-03-11T02:24:23.132Z,946.32
2024-03-11T02:25:23.090Z,946.34
2024-03-11T02:26:23.137Z,946.33
2024-03-11T02:27:23.028Z,946.31
2024-03-11T02:28:22.997Z,946.34
2024-03-11T02:29:23.038Z,946.34
2024-03-11T02:30:22.933Z,946.32
2024-03-11T02:31:22.898Z,946.31
2024-03-11T02:32:22.915Z,946.33
2024-03-11T02:33:22.968Z,946.29
2024-03-11T02:34:22.804Z,946.33
2024-03-11T02:35:22.837Z,946.32
2024-03-11T02:36:22.741Z,946.31
2024-03-11T02:37:22.718Z,946.36
2024-03-11T02:38:22.720Z,946.35
2024-03-11T02:39:22.644Z,946.35
2024-03-11T02:40:22.636Z,946.36
2024-03-11T02:41:22.652Z,946.39
2024-03-11T02:42:22.592Z,946.36
2024-03-11T02:43:22.534Z,946.36
2024-03-11T02:44:22.525Z,946.34
2024-03-11T02:45:22.452Z,946.34
2024-03-11T02:46:22.424Z,946.33
2024-03-11T02:47:22.411Z,946.38
2024-03-11T02:48:22.417Z,946.35
2024-03-11T02:49:22.338Z,946.33
2024-03-11T02:50:22.350Z,946.33
2024-03-11T02:51:22.264Z,946.32
2024-03-11T02:52:22.234Z,946.36
2024-03-11T02:53:22.232Z,946.39
2024-03-11T02:54:22.170Z,946.35
2024-03-11T02:55:22.148Z,946.39
2024-03-11T02:56:22.218Z,946.39
2024-03-11T02:57:22.091Z,946.41
2024-03-11T02:58:22.094Z,946.45
2024-03-11T02:59:22.052Z,946.42
2024-03-11T03:00:21.987Z,946.43
2024-03-11T03:01:21.947Z,946.43
2024-03-11T03:02:21.921Z,946.40
2024-03-11T03:03:21.939Z,946.45
2024-03-11T03:04:21.851Z,946.43
2024-03-11T03:05:21.912Z,946.44
2024-03-11T03:06:21.794Z,946.43
2024-03-11T03:07:21.755Z,946.47
2024-03-11T03:08:21.776Z,946.46
2024-03-11T03:09:21.691Z,946.54
2024-03-11T03:10:21.673Z,946.52
2024-03-11T03:11:21.721Z,946.56
2024-03-11T03:12:21.857Z,946.56
2024-03-11T03:13:21.569Z,946.54
2024-03-11T03:14:24.707Z,946.53
2024-03-11T03:15:21.500Z,946.54
2024-03-11T03:16:21.468Z,946.55
2024-03-11T03:17:21.489Z,946.51
2024-03-11T03:18:21.467Z,946.53
2024-03-11T03:19:21.385Z,946.55
2024-03-11T03:20:21.385Z,946.54
2024-03-11T03:21:21.305Z,946.57
2024-03-11T03:22:21.274Z,946.57
2024-03-11T03:23:21.266Z,946.55
2024-03-11T03:24:21.214Z,946.54
2024-03-11T03:25:21.180Z,946.55
2024-03-11T03:26:21.269Z,946.53
2024-03-11T03:27:21.117Z,946.54
2024-03-11T03:28:21.083Z,946.57
2024-03-11T03:29:21.056Z,946.55
2024-03-11T03:30:21.073Z,946.60
2024-03-11T03:31:20.983Z,946.56
2024-03-11T03:32:21.026Z,946.59
2024-03-11T03:33:20.934Z,946.57
2024-03-11T03:34:20.892Z,946.56
2024-03-11T03:35:20.924Z,946.60
2024-03-11T03:36:20.826Z,946.61
2024-03-11T03:37:20.804Z,946.59
2024-03-11T03:38:20.793Z,946.64
2024-03-11T03:39:20.725Z,946.66
2024-03-11T03:40:20.712Z,946.68
2024-03-11T03:41:20.717Z,946.68
2024-03-11T03:42:20.630Z,946.74
2024-03-11T03:43:20.617Z,946.71
2024-03-11T03:44:20.585Z,946.70
2024-03-11T03:45:20.533Z,946.67
2024-03-11T03:46:20.541Z,946.68
2024-03-11T03:47:20.476Z,946.70
2024-03-11T03:48:20.456Z,946.69
2024-03-11T03:49:20.415Z,946.70
2024-03-11T03:50:20.426Z,946.71
2024-03-11T03:51:20.342Z,946.70
2024-03-11T03:52:20.306Z,946.74
2024-03-11T03:53:20.283Z,946.74
2024-03-11T03:54:20.242Z,946.74
2024-03-11T03:55:20.212Z,946.70
2024-03-11T03:56:20.250Z,946.70
2024-03-11T03:57:20.158Z,946.72
2024-03-11T03:58:20.142Z,946.73
2024-03-11T03:59:20.103Z,946.75
2024-03-11T04:00:20.050Z,946.75
2024-03-11T04:01:20.072Z,946.76
2024-03-11T04:02:20.071Z,946.79
2024-03-11T04:03:19.954Z,946.83
2024-03-11T04:04:19.923Z,946.78
2024-03-11T04:05:20.221Z,946.83
2024-03-11T04:06:19.862Z,946.81
2024-03-11T04:07:19.844Z,946.84
2024-03-11T04:08:19.801Z,946.85
2024-03-11T04:09:19.760Z,946.84
2024-03-11T04:10:19.854Z,946.86
2024-03-11T04:11:19.900Z,946.86
2024-03-11T04:12:19.714Z,946.83
2024-03-11T04:13:19.632Z,946.88
2024-03-11T04:14:19.770Z,946.89
2024-03-11T04:15:19.736Z,946.89
2024-03-11T04:16:19.569Z,946.87
2024-03-11T04:17:19.628Z,946.89
2024-03-11T04:18:19.550Z,946.88
2024-03-11T04:19:19.439Z,946.83
2024-03-11T04:20:19.418Z,946.88
2024-03-11T04:21:19.373Z,946.88
2024-03-11T04:22:19.352Z,946.86
2024-03-11T04:23:19.590Z,946.86
2024-03-11T04:24:19.352Z,946.84
2024-03-11T04:25:19.250Z,946.86
2024-03-11T04:26:19.266Z,946.90
2024-03-11T04:27:19.180Z,946.91
2024-03-11T04:28:19.150Z,946.92
2024-03-11T04:29:19.141Z,946.94
2024-03-11T04:30:19.086Z,946.94
2024-03-11T04:31:19.052Z,946.95
2024-03-11T04:32:19.051Z,946.95
2024-03-11T04:33:19.105Z,946.98
2024-03-11T04:34:19.007Z,947.03
2024-03-11T04:35:18.963Z,946.95
2024-03-11T04:36:18.911Z,946.94
2024-03-11T04:37:18.868Z,946.91
2024-03-11T04:38:18.919Z,946.91
2024-03-11T04:39:18.794Z,946.92
2024-03-11T04:40:18.770Z,946.98
2024-03-11T04:41:18.755Z,946.93
2024-03-11T04:42:18.715Z,946.92
2024-03-11T04:43:18.667Z,946.91
2024-03-11T04:44:18.650Z,946.96
2024-03-11T04:45:18.606Z,946.94
2024-03-11T04:46:18.613Z,946.94
2024-03-11T04:47:18.557Z,946.92
2024-03-11T04:48:18.655Z,946.94
2024-03-11T04:49:18.475Z,946.93
2024-03-11T04:50:18.517Z,946.90
2024-03-11T04:51:18.415Z,946.92
2024-03-11T04:52:18.389Z,946.91
2024-03-11T04:53:18.347Z,946.89
2024-03-11T04:54:18.316Z,946.89
2024-03-11T04:55:18.286Z,946.88
2024-03-11T04:56:18.290Z,946.90
2024-03-11T04:57:18.218Z,946.87
2024-03-11T04:58:18.187Z,946.93
2024-03-11T04:59:18.186Z,946.96
2024-03-11T05:00:18.128Z,946.95
2024-03-11T05:01:18.159Z,946.97
2024-03-11T05:02:18.089Z,946.96
2024-03-11T05:03:18.026Z,947.01
2024-03-11T05:04:17.993Z,947.01
2024-03-11T05:05:18.000Z,946.98
2024-03-11T05:06:17.990Z,947.00
2024-03-11T05:07:17.902Z,947.01
2024-03-11T05:08:17.875Z,947.04
2024-03-11T05:09:17.833Z,947.01
2024-03-11T05:10:17.797Z,947.04
2024-03-11T05:11:18.711Z,947.09
2024-03-11T05:12:17.761Z,947.05
2024-03-11T05:13:17.704Z,947.05
2024-03-11T05:14:17.686Z,947.06
2024-03-11T05:15:17.644Z,947.05
2024-03-11T05:16:17.613Z,947.08
2024-03-11T05:17:17.619Z,947.08
2024-03-11T05:18:17.745Z,947.14
2024-03-11T05:19:17.512Z,947.16
2024-03-11T05:20:17.568Z,947.17
2024-03-11T05:21:17.448Z,947.17
2024-03-11T05:22:17.461Z,947.15
2024-03-11T05:23:17.406Z,947.19
2024-03-11T05:24:17.374Z,947.24
2024-03-11T05:25:17.389Z,947.25
2024-03-11T05:26:17.416Z,947.25
2024-03-11T05:27:17.277Z,947.26
2024-03-11T05:28:17.223Z,947.26
2024-03-11T05:29:17.212Z,947.26
2024-03-11T05:30:17.448Z,947.26
2024-03-11T05:31:17.126Z,947.25
2024-03-11T05:32:17.112Z,947.25
2024-03-11T05:33:17.113Z,947.22
2024-03-11T05:34:17.060Z,947.25
2024-03-11T05:35:17.416Z,947.22
2024-03-11T05:36:16.964Z,947.26
2024-03-11T05:37:16.934Z,947.27
2024-03-11T05:38:16.977Z,947.29
2024-03-11T05:39:16.868Z,947.29
2024-03-11T05:40:16.838Z,947.34
2024-03-11T05:41:16.823Z,947.33
2024-03-11T05:42:16.771Z,947.36
2024-03-11T05:43:16.738Z,947.38
2024-03-11T05:44:16.746Z,947.39
2024-03-11T05:45:16.683Z,947.43
2024-03-11T05:46:16.640Z,947.42
2024-03-11T05:47:16.662Z,947.46
2024-03-11T05:48:16.588Z,947.45
2024-03-11T05:49:16.554Z,947.47
2024-03-11T05:50:16.588Z,947.47
2024-03-11T05:51:16.492Z,947.53
2024-03-11T05:52:16.447Z,947.50
2024-03-11T05:53:16.475Z,947.56
2024-03-11T05:54:16.427Z,947.57
2024-03-11T05:55:16.351Z,947.60
2024-03-11T05:56:16.349Z,947.65
2024-03-11T05:57:16.291Z,947.63
2024-03-11T05:58:16.253Z,947.66
2024-03-11T05:59:16.252Z,947.67
2024-03-11T06:00:16.193Z,947.71
2024-03-11T06:01:16.189Z,947.69
2024-03-11T06:02:16.128Z,947.72
2024-03-11T06:03:16.132Z,947.70
2024-03-11T06:04:16.058Z,947.72
2024-03-11T06:05:16.036Z,947.74
2024-03-11T06:06:16.004Z,947.74
2024-03-11T06:07:15.962Z,947.77
2024-03-11T06:08:15.937Z,947.79
2024-03-11T06:09:16.059Z,947.81
2024-03-11T06:10:15.922Z,947.83
2024-03-11T06:11:15.885Z,947.89
2024-03-11T06:12:15.880Z,947.89
2024-03-11T06:13:15.772Z,947.91
2024-03-11T06:14:15.804Z,947.95
2024-03-11T06:15:15.731Z,947.97
2024-03-11T06:16:15.674Z,948.00
2024-03-11T06:17:15.681Z,948.02
2024-03-11T06:18:15.823Z,948.04
2024-03-11T06:19:15.580Z,948.05
2024-03-11T06:20:16.015Z,948.10
2024-03-11T06:21:15.517Z,948.07
2024-03-11T06:22:15.476Z,948.11
2024-03-11T06:23:15.490Z,948.12
2024-03-11T06:24:15.420Z,948.12
2024-03-11T06:25:15.413Z,948.13
2024-03-11T06:26:15.442Z,948.13
2024-03-11T06:27:15.318Z,948.16
2024-03-11T06:28:15.286Z,948.13
2024-03-11T06:29:15.321Z,948.13
2024-03-11T06:30:15.223Z,948.12
2024-03-11T06:31:15.194Z,948.09
2024-03-11T06:32:15.221Z,948.12
2024-03-11T06:33:15.169Z,948.11
2024-03-11T06:34:15.093Z,948.08
2024-03-11T06:35:15.206Z,948.10
2024-03-11T06:36:16.431Z,948.09
2024-03-11T06:37:15.011Z,948.09
2024-03-11T06:38:15.019Z,948.08
2024-03-11T06:39:14.964Z,948.08
2024-03-11T06:40:14.981Z,948.06
2024-03-11T06:41:14.902Z,948.07
2024-03-11T06:42:14.883Z,948.11
2024-03-11T06:43:14.839Z,948.08
2024-03-11T06:44:20.384Z,948.12
2024-03-11T06:45:14.847Z,948.13
2024-03-11T06:46:14.709Z,948.15
2024-03-11T06:47:14.678Z,948.16
2024-03-11T06:48:14.691Z,948.10
2024-03-11T06:49:14.614Z,948.17
2024-03-11T06:50:14.584Z,948.19
2024-03-11T06:51:14.550Z,948.22
2024-03-11T06:52:14.519Z,948.23
2024-03-11T06:53:14.488Z,948.30
2024-03-11T06:54:14.465Z,948.35
2024-03-11T06:55:14.426Z,948.37
2024-03-11T06:56:14.389Z,948.40
2024-03-11T06:57:14.542Z,948.39
2024-03-11T06:58:14.470Z,948.41
2024-03-11T06:59:14.371Z,948.46
2024-03-11T07:00:14.264Z,948.48
2024-03-11T07:01:14.313Z,948.49
2024-03-11T07:02:14.226Z,948.48
2024-03-11T07:03:14.177Z,948.50
2024-03-11T07:04:14.144Z,948.47
2024-03-11T07:05:14.105Z,948.50
2024-03-11T07:06:14.132Z,948.53
2024-03-11T07:07:14.044Z,948.54
2024-03-11T07:08:14.008Z,948.58
2024-03-11T07:09:13.977Z,948.61
2024-03-11T07:10:13.960Z,948.59
2024-03-11T07:11:13.952Z,948.60
2024-03-11T07:12:13.933Z,948.58
2024-03-11T07:13:13.851Z,948.61
2024-03-11T07:14:13.854Z,948.65
2024-03-11T07:15:13.809Z,948.68
2024-03-11T07:16:13.945Z,948.66
2024-03-11T07:17:13.730Z,948.68
2024-03-11T07:18:13.715Z,948.71
2024-03-11T07:19:13.989Z,948.70
2024-03-11T07:20:13.635Z,948.71
2024-03-11T07:21:13.593Z,948.72
2024-03-11T07:22:13.565Z,948.73
2024-03-11T07:23:13.533Z,948.76
2024-03-11T07:24:13.508Z,948.80
2024-03-11T07:25:13.489Z,948.82
2024-03-11T07:26:13.434Z,948.82
2024-03-11T07:27:13.406Z,948.82
2024-03-11T07:28:13.373Z,948.84
2024-03-11T07:29:13.342Z,948.83
2024-03-11T07:30:13.361Z,948.87
2024-03-11T07:31:13.277Z,948.86
2024-03-11T07:32:13.303Z,948.89
2024-03-11T07:33:13.258Z,948.90
2024-03-11T07:34:13.185Z,948.92
2024-03-11T07:35:13.172Z,948.91
2024-03-11T07:36:13.122Z,948.91
2024-03-11T07:37:13.108Z,948.92
2024-03-11T07:38:13.084Z,948.94
2024-03-11T07:39:13.030Z,948.95
2024-03-11T07:40:13.209Z,948.97
2024-03-11T07:41:12.968Z,949.02
2024-03-11T07:42:12.957Z,949.00
2024-03-11T07:43:12.907Z,949.03
2024-03-11T07:44:12.892Z,949.05
2024-03-11T07:45:13.078Z,949.05
2024-03-11T07:46:13.017Z,949.09
2024-03-11T07:47:12.773Z,949.14
2024-03-11T07:48:12.742Z,949.10
2024-03-11T07:49:13.143Z,949.12
2024-03-11T07:50:13.096Z,949.15
2024-03-11T07:51:12.754Z,949.11
2024-03-11T07:52:12.642Z,949.12
2024-03-11T07:53:12.584Z,949.12
2024-03-11T07:54:12.558Z,949.14
2024-03-11T07:55:12.522Z,949.17
2024-03-11T07:56:12.507Z,949.16
2024-03-11T07:57:12.509Z,949.18
2024-03-11T07:58:12.428Z,949.19
2024-03-11T07:59:12.402Z,949.17
2024-03-11T08:00:12.365Z,949.16
2024-03-11T08:01:12.346Z,949.17
2024-03-11T08:02:12.407Z,949.17
2024-03-11T08:03:12.277Z,949.23
2024-03-11T08:04:12.241Z,949.22
2024-03-11T08:05:12.222Z,949.20
2024-03-11T08:06:12.187Z,949.23
2024-03-11T08:07:12.148Z,949.21
2024-03-11T08:08:12.115Z,949.19
2024-03-11T08:09:12.128Z,949.24
2024-03-11T08:10:12.192Z,949.22
2024-03-11T08:11:12.061Z,949.26
2024-03-11T08:12:11.992Z,949.27
2024-03-11T08:13:11.971Z,949.26
2024-03-11T08:14:11.926Z,949.25
2024-03-11T08:15:11.908Z,949.19
2024-03-11T08:16:11.868Z,949.25
2024-03-11T08:17:11.840Z,949.19
2024-03-11T08:18:12.022Z,949.23
2024-03-11T08:19:11.790Z,949.23
2024-03-11T08:20:11.758Z,949.23
2024-03-11T08:21:11.814Z,949.24
2024-03-11T08:22:11.681Z,949.26
2024-03-11T08:23:11.738Z,949.26
2024-03-11T08:24:11.621Z,949.29
2024-03-11T08:25:11.592Z,949.29
2024-03-11T08:26:11.561Z,949.32
2024-03-11T08:27:11.528Z,949.30
2024-03-11T08:28:11.498Z,949.33
2024-03-11T08:29:11.523Z,949.34
2024-03-11T08:30:11.448Z,949.35
2024-03-11T08:31:11.407Z,949.37
2024-03-11T08:32:11.374Z,949.36
2024-03-11T08:33:11.361Z,949.32
2024-03-11T08:34:11.357Z,949.29
2024-03-11T08:35:11.290Z,949.25
2024-03-11T08:36:11.257Z,949.27
2024-03-11T08:37:11.217Z,949.28
2024-03-11T08:38:11.203Z,949.28
2024-03-11T08:39:11.175Z,949.28
2024-03-11T08:40:11.132Z,949.29
2024-03-11T08:41:11.147Z,949.28
2024-03-11T08:42:11.090Z,949.29
2024-03-11T08:43:11.124Z,949.32
2024-03-11T08:44:11.071Z,949.32
2024-03-11T08:45:10.976Z,949.33
2024-03-11T08:46:10.995Z,949.32
2024-03-11T08:47:12.931Z,949.37
2024-03-11T08:48:10.969Z,949.36
2024-03-11T08:49:10.896Z,949.36
2024-03-11T08:50:10.893Z,949.38
2024-03-11T08:51:10.790Z,949.39
2024-03-11T08:52:10.759Z,949.41
2024-03-11T08:53:10.764Z,949.37
2024-03-11T08:54:10.699Z,949.40
2024-03-11T08:55:10.685Z,949.41
2024-03-11T08:56:10.635Z,949.39
2024-03-11T08:57:10.604Z,949.44
2024-03-11T08:58:10.569Z,949.42
2024-03-11T08:59:10.602Z,949.45
2024-03-11T09:00:10.526Z,949.51
2024-03-11T09:01:10.606Z,949.51
2024-03-11T09:02:10.449Z,949.53
2024-03-11T09:03:10.437Z,949.53
2024-03-11T09:04:10.396Z,949.56
2024-03-11T09:05:10.361Z,949.56
2024-03-11T09:06:10.399Z,949.59
2024-03-11T09:07:10.298Z,949.56
2024-03-11T09:08:10.276Z,949.58
2024-03-11T09:09:10.264Z,949.62
2024-03-11T09:10:10.304Z,949.59
2024-03-11T09:11:10.177Z,949.61
2024-03-11T09:12:10.242Z,949.59
2024-03-11T09:13:10.134Z,949.61
2024-03-11T09:14:10.084Z,949.59
2024-03-11T09:15:10.070Z,949.56
2024-03-11T09:16:10.059Z,949.58
2024-03-11T09:17:09.993Z,949.58
2024-03-11T09:18:10.021Z,949.60
2024-03-11T09:19:11.485Z,949.56
2024-03-11T09:20:09.902Z,949.57
2024-03-11T09:21:09.975Z,949.60
2024-03-11T09:22:09.894Z,949.60
2024-03-11T09:23:09.849Z,949.62
2024-03-11T09:24:09.813Z,949.61
2024-03-11T09:25:09.747Z,949.63
2024-03-11T09:26:09.720Z,949.61
2024-03-11T09:27:09.698Z,949.62
2024-03-11T09:28:09.804Z,949.64
2024-03-11T09:29:09.642Z,949.67
2024-03-11T09:30:09.628Z,949.65
2024-03-11T09:31:09.617Z,949.65
2024-03-11T09:32:09.534Z,949.65
2024-03-11T09:33:09.572Z,949.67
2024-03-11T09:34:09.574Z,949.62
2024-03-11T09:35:09.447Z,949.63
2024-03-11T09:36:09.434Z,949.60
2024-03-11T09:37:09.384Z,949.63
2024-03-11T09:38:09.396Z,949.61
2024-03-11T09:39:09.343Z,949.62
2024-03-11T09:40:09.341Z,949.63
2024-03-11T09:41:09.266Z,949.62
2024-03-11T09:42:09.280Z,949.60
2024-03-11T09:43:09.260Z,949.63
2024-03-11T09:44:09.176Z,949.64
2024-03-11T09:45:09.204Z,949.66
2024-03-11T09:46:09.121Z,949.60
2024-03-11T09:47:09.084Z,949.65
2024-03-11T09:48:09.065Z,949.66
2024-03-11T09:49:09.043Z,949.76
2024-03-11T09:50:08.995Z,949.73
2024-03-11T09:51:09.106Z,949.74
2024-03-11T09:52:08.936Z,949.78
2024-03-11T09:53:09.594Z,949.76
2024-03-11T09:54:09.026Z,949.75
2024-03-11T09:55:11.257Z,949.76
2024-03-11T09:56:08.817Z,949.76
2024-03-11T09:57:08.934Z,949.73
2024-03-11T09:58:09.079Z,949.74
2024-03-11T09:59:08.749Z,949.79
2024-03-11T10:00:08.701Z,949.79
2024-03-11T10:01:08.933Z,949.80
2024-03-11T10:02:08.635Z,949.84
2024-03-11T10:03:08.610Z,949.82
2024-03-11T10:04:08.624Z,949.81
2024-03-11T10:05:08.547Z,949.83
2024-03-11T10:06:08.519Z,949.83
2024-03-11T10:07:10.112Z,949.83
2024-03-11T10:08:08.465Z,949.82
2024-03-11T10:09:08.437Z,949.82
2024-03-11T10:10:08.582Z,949.84
2024-03-11T10:11:08.442Z,949.82
2024-03-11T10:12:08.344Z,949.85
2024-03-11T10:13:08.313Z,949.88
2024-03-11T10:14:08.287Z,949.86
2024-03-11T10:15:08.248Z,949.89
2024-03-11T10:16:08.240Z,949.87
2024-03-11T10:17:08.190Z,949.88
2024-03-11T10:18:08.184Z,949.91
2024-03-11T10:19:08.145Z,949.91
2024-03-11T10:20:08.100Z,949.92
2024-03-11T10:21:08.071Z,949.92
2024-03-11T10:22:08.107Z,949.93
2024-03-11T10:23:08.143Z,949.93
2024-03-11T10:24:07.985Z,949.92
2024-03-11T10:25:08.201Z,949.92
2024-03-11T10:26:08.098Z,949.92
2024-03-11T10:27:07.895Z,949.90
2024-03-11T10:28:07.894Z,949.91
2024-03-11T10:29:07.851Z,949.88
2024-03-11T10:30:07.829Z,949.90
2024-03-11T10:31:07.789Z,949.94
2024-03-11T10:32:07.756Z,949.95
2024-03-11T10:33:07.810Z,949.99
2024-03-11T10:34:07.778Z,949.93
2024-03-11T10:35:07.704Z,949.97
2024-03-11T10:36:07.649Z,949.97
2024-03-11T10:37:07.741Z,949.97
2024-03-11T10:38:07.573Z,950.00
2024-03-11T10:39:07.548Z,949.98
2024-03-11T10:40:07.660Z,949.98
2024-03-11T10:41:07.487Z,949.98
2024-03-11T10:42:07.644Z,949.96
2024-03-11T10:43:07.428Z,949.93
2024-03-11T10:44:07.413Z,949.91
2024-03-11T10:45:07.378Z,949.92
2024-03-11T10:46:07.424Z,949.90
2024-03-11T10:47:07.329Z,949.93
2024-03-11T10:48:07.321Z,949.92
2024-03-11T10:49:07.290Z,949.92
2024-03-11T10:50:07.229Z,949.94
2024-03-11T10:51:07.196Z,949.91
2024-03-11T10:52:07.267Z,949.95
2024-03-11T10:53:07.141Z,949.90
2024-03-11T10:54:07.118Z,949.93
2024-03-11T10:55:13.563Z,949.90
2024-03-11T10:56:07.054Z,949.89
2024-03-11T10:57:07.037Z,949.91
2024-03-11T10:58:07.154Z,949.87
2024-03-11T10:59:06.988Z,949.92
2024-03-11T11:00:06.942Z,949.95
2024-03-11T11:01:07.113Z,949.92
2024-03-11T11:02:06.890Z,949.90
2024-03-11T11:03:06.857Z,949.91
2024-03-11T11:04:06.920Z,949.92
2024-03-11T11:05:06.810Z,949.92
2024-03-11T11:06:06.788Z,949.86
2024-03-11T11:07:06.758Z,949.90
2024-03-11T11:08:06.728Z,949.87
2024-03-11T11:09:06.690Z,949.87
2024-03-11T11:10:06.716Z,949.88
2024-03-11T11:11:06.694Z,949.85
2024-03-11T11:12:06.640Z,949.84
2024-03-11T11:13:07.072Z,949.87
2024-03-11T11:14:06.601Z,949.87
2024-03-11T11:15:06.517Z,949.87
2024-03-11T11:16:06.536Z,949.88
2024-03-11T11:17:06.460Z,949.91
2024-03-11T11:18:06.458Z,949.91
2024-03-11T11:19:06.459Z,949.94
2024-03-11T11:20:06.375Z,949.93
2024-03-11T11:21:06.347Z,949.86
2024-03-11T11:22:06.337Z,949.90
2024-03-11T11:23:06.337Z,949.87
2024-03-11T11:24:06.265Z,949.89
2024-03-11T11:25:06.257Z,949.87
2024-03-11T11:26:06.216Z,949.85
2024-03-11T11:27:06.174Z,949.87
2024-03-11T11:28:06.155Z,949.89
2024-03-11T11:29:06.118Z,949.90
2024-03-11T11:30:08.345Z,949.89
2024-03-11T11:31:06.058Z,949.91
2024-03-11T11:32:06.043Z,949.92
2024-03-11T11:33:06.021Z,949.90
2024-03-11T11:34:06.220Z,949.88
2024-03-11T11:35:05.952Z,949.94
2024-03-11T11:36:05.922Z,949.91
2024-03-11T11:37:06.074Z,949.88
2024-03-11T11:38:05.887Z,949.95
2024-03-11T11:39:05.836Z,949.91
2024-03-11T11:40:05.941Z,949.92
2024-03-11T11:41:05.798Z,949.94
2024-03-11T11:42:05.778Z,949.98
2024-03-11T11:43:05.745Z,949.96
2024-03-11T11:44:05.700Z,949.92
2024-03-11T11:45:05.679Z,949.94
2024-03-11T11:46:05.808Z,949.96
2024-03-11T11:47:07.268Z,949.95
2024-03-11T11:48:05.631Z,949.97
2024-03-11T11:49:05.662Z,949.96
2024-03-11T11:50:05.702Z,949.94
2024-03-11T11:51:05.504Z,949.95
2024-03-11T11:52:05.483Z,949.96
2024-03-11T11:53:05.587Z,950.01
2024-03-11T11:54:13.047Z,949.99
2024-03-11T11:55:05.415Z,949.96
2024-03-11T11:56:05.423Z,949.94
2024-03-11T11:57:05.376Z,949.96
2024-03-11T11:58:05.374Z,950.00
2024-03-11T11:59:05.287Z,949.97
2024-03-11T12:00:05.252Z,950.00
2024-03-11T12:01:05.277Z,949.94
2024-03-11T12:02:05.306Z,949.91
2024-03-11T12:03:05.169Z,949.90
2024-03-11T12:04:05.141Z,949.94
2024-03-11T12:05:05.114Z,949.94
2024-03-11T12:06:05.125Z,949.89
2024-03-11T12:07:05.213Z,949.94
2024-03-11T12:08:05.028Z,949.93
2024-03-11T12:09:05.003Z,949.95
2024-03-11T12:10:05.021Z,950.01
2024-03-11T12:11:04.981Z,949.95
2024-03-11T12:12:05.092Z,949.96
2024-03-11T12:13:04.958Z,949.96
2024-03-11T12:14:04.863Z,949.95
2024-03-11T12:15:05.285Z,950.01
2024-03-11T12:16:04.867Z,950.01
2024-03-11T12:17:04.860Z,950.03
2024-03-11T12:18:04.946Z,950.02
2024-03-11T12:19:04.827Z,950.01
2024-03-11T12:20:04.692Z,950.06
2024-03-11T12:21:04.669Z,950.03
2024-03-11T12:22:04.643Z,950.07
2024-03-11T12:23:04.609Z,950.08
2024-03-11T12:24:04.580Z,950.03
2024-03-11T12:25:04.558Z,950.03
2024-03-11T12:26:04.524Z,950.07
2024-03-11T12:27:04.576Z,950.09
2024-03-11T12:28:04.577Z,950.05